sensor_id;sensor_type;location;lat;lon;timestamp;pressure;altitude;pressure_sealevel;temperature
40968;BMP280;57377;45.130;6.038;2023-04-23T00:00:06;92174.16;;;15.46
40968;BMP280;57377;45.130;6.038;2023-04-23T00:02:33;92176.47;;;15.47
40968;BMP280;57377;45.130;6.038;2023-04-23T00:05:04;92174.16;;;15.46
40968;BMP280;57377;45.130;6.038;2023-04-23T00:07:32;92190.69;;;15.26
40968;BMP280;57377;45.130;6.038;2023-04-23T00:09:58;92184.53;;;15.42
40968;BMP280;57377;45.130;6.038;2023-04-23T00:12:24;92182.38;;;14.64
40968;BMP280;57377;45.130;6.038;2023-04-23T00:14:49;92179.44;;;14.65
40968;BMP280;57377;45.130;6.038;2023-04-23T00:17:15;92174.06;;;15.10
40968;BMP280;57377;45.130;6.038;2023-04-23T00:19:40;92171.03;;;15.20
40968;BMP280;57377;45.130;6.038;2023-04-23T00:22:06;92187.50;;;15.01
40968;BMP280;57377;45.130;6.038;2023-04-23T00:24:31;92196.78;;;15.18
40968;BMP280;57377;45.130;6.038;2023-04-23T00:27:00;92205.97;;;15.24
40968;BMP280;57377;45.130;6.038;2023-04-23T00:29:26;92196.09;;;14.81
40968;BMP280;57377;45.130;6.038;2023-04-23T00:31:51;92200.72;;;14.84
40968;BMP280;57377;45.130;6.038;2023-04-23T00:34:16;92206.03;;;14.96
40968;BMP280;57377;45.130;6.038;2023-04-23T00:36:42;92212.41;;;15.07
40968;BMP280;57377;45.130;6.038;2023-04-23T00:39:07;92211.31;;;15.07
40968;BMP280;57377;45.130;6.038;2023-04-23T00:41:33;92225.63;;;14.90
40968;BMP280;57377;45.130;6.038;2023-04-23T00:43:59;92230.94;;;15.02
40968;BMP280;57377;45.130;6.038;2023-04-23T00:46:25;92229.66;;;15.07
40968;BMP280;57377;45.130;6.038;2023-04-23T00:48:51;92227.03;;;14.87
40968;BMP280;57377;45.130;6.038;2023-04-23T00:51:17;92239.00;;;14.97
40968;BMP280;57377;45.130;6.038;2023-04-23T00:53:42;92235.81;;;14.63
40968;BMP280;57377;45.130;6.038;2023-04-23T00:56:08;92242.56;;;14.35
40968;BMP280;57377;45.130;6.038;2023-04-23T00:58:35;92233.75;;;14.76
40968;BMP280;57377;45.130;6.038;2023-04-23T01:01:00;92231.19;;;14.88
40968;BMP280;57377;45.130;6.038;2023-04-23T01:03:28;92229.16;;;14.94
40968;BMP280;57377;45.130;6.038;2023-04-23T01:05:55;92232.34;;;14.99
40968;BMP280;57377;45.130;6.038;2023-04-23T01:08:22;92217.72;;;14.98
40968;BMP280;57377;45.130;6.038;2023-04-23T01:10:49;92219.44;;;14.45
40968;BMP280;57377;45.130;6.038;2023-04-23T01:13:15;92226.66;;;14.11
40968;BMP280;57377;45.130;6.038;2023-04-23T01:15:42;92217.38;;;13.85
40968;BMP280;57377;45.130;6.038;2023-04-23T01:18:08;92220.41;;;14.04
40968;BMP280;57377;45.130;6.038;2023-04-23T01:20:34;92215.28;;;13.62
40968;BMP280;57377;45.130;6.038;2023-04-23T01:23:03;92204.91;;;13.82
40968;BMP280;57377;45.130;6.038;2023-04-23T01:25:29;92200.09;;;14.01
40968;BMP280;57377;45.130;6.038;2023-04-23T01:27:55;92202.81;;;14.21
40968;BMP280;57377;45.130;6.038;2023-04-23T01:30:23;92207.31;;;14.04
40968;BMP280;57377;45.130;6.038;2023-04-23T01:32:49;92206.34;;;14.17
40968;BMP280;57377;45.130;6.038;2023-04-23T01:35:14;92204.44;;;14.26
40968;BMP280;57377;45.130;6.038;2023-04-23T01:37:41;92196.44;;;14.02
40968;BMP280;57377;45.130;6.038;2023-04-23T01:40:07;92204.78;;;13.71
40968;BMP280;57377;45.130;6.038;2023-04-23T01:42:33;92190.88;;;13.95
40968;BMP280;57377;45.130;6.038;2023-04-23T01:44:58;92189.22;;;14.28
40968;BMP280;57377;45.130;6.038;2023-04-23T01:47:24;92195.91;;;14.09
40968;BMP280;57377;45.130;6.038;2023-04-23T01:49:50;92197.22;;;14.23
40968;BMP280;57377;45.130;6.038;2023-04-23T01:52:15;92187.78;;;14.10
40968;BMP280;57377;45.130;6.038;2023-04-23T01:54:40;92181.44;;;14.40
40968;BMP280;57377;45.130;6.038;2023-04-23T01:57:06;92187.88;;;14.50
40968;BMP280;57377;45.130;6.038;2023-04-23T01:59:31;92179.94;;;14.59
40968;BMP280;57377;45.130;6.038;2023-04-23T02:01:56;92191.66;;;14.33
40968;BMP280;57377;45.130;6.038;2023-04-23T02:04:22;92189.19;;;13.91
40968;BMP280;57377;45.130;6.038;2023-04-23T02:06:49;92183.97;;;14.28
40968;BMP280;57377;45.130;6.038;2023-04-23T02:09:15;92176.53;;;14.38
40968;BMP280;57377;45.130;6.038;2023-04-23T02:11:40;92175.38;;;14.47
40968;BMP280;57377;45.130;6.038;2023-04-23T02:14:07;92175.56;;;14.14
40968;BMP280;57377;45.130;6.038;2023-04-23T02:16:32;92174.69;;;14.39
40968;BMP280;57377;45.130;6.038;2023-04-23T02:18:58;92181.44;;;14.40
40968;BMP280;57377;45.130;6.038;2023-04-23T02:21:24;92172.00;;;14.47
40968;BMP280;57377;45.130;6.038;2023-04-23T02:23:51;92179.09;;;14.46
40968;BMP280;57377;45.130;6.038;2023-04-23T02:26:16;92169.84;;;13.83
40968;BMP280;57377;45.130;6.038;2023-04-23T02:28:43;92166.47;;;13.83
40968;BMP280;57377;45.130;6.038;2023-04-23T02:31:08;92169.22;;;14.23
40968;BMP280;57377;45.130;6.038;2023-04-23T02:33:34;92162.06;;;14.41
40968;BMP280;57377;45.130;6.038;2023-04-23T02:35:59;92169.56;;;14.22
40968;BMP280;57377;45.130;6.038;2023-04-23T02:38:25;92160.34;;;14.16
40968;BMP280;57377;45.130;6.038;2023-04-23T02:40:50;92158.22;;;14.38
40968;BMP280;57377;45.130;6.038;2023-04-23T02:43:15;92156.75;;;14.49
40968;BMP280;57377;45.130;6.038;2023-04-23T02:45:42;92162.66;;;14.38
40968;BMP280;57377;45.130;6.038;2023-04-23T02:48:09;92156.31;;;14.47
40968;BMP280;57377;45.130;6.038;2023-04-23T02:50:34;92155.34;;;14.51
40968;BMP280;57377;45.130;6.038;2023-04-23T02:53:00;92155.94;;;14.57
40968;BMP280;57377;45.130;6.038;2023-04-23T02:55:25;92154.53;;;14.59
40968;BMP280;57377;45.130;6.038;2023-04-23T02:57:56;92150.84;;;14.60
40968;BMP280;57377;45.130;6.038;2023-04-23T03:00:21;92157.28;;;14.63
40968;BMP280;57377;45.130;6.038;2023-04-23T03:02:46;92159.25;;;14.66
40968;BMP280;57377;45.130;6.038;2023-04-23T03:05:12;92163.34;;;14.55
40968;BMP280;57377;45.130;6.038;2023-04-23T03:07:37;92160.69;;;14.35
40968;BMP280;57377;45.130;6.038;2023-04-23T03:10:03;92168.44;;;14.51
40968;BMP280;57377;45.130;6.038;2023-04-23T03:12:29;92168.25;;;14.56
40968;BMP280;57377;45.130;6.038;2023-04-23T03:14:54;92173.38;;;14.53
40968;BMP280;57377;45.130;6.038;2023-04-23T03:17:20;92171.31;;;14.58
40968;BMP280;57377;45.130;6.038;2023-04-23T03:19:45;92161.31;;;14.60
40968;BMP280;57377;45.130;6.038;2023-04-23T03:22:10;92156.06;;;14.60
40968;BMP280;57377;45.130;6.038;2023-04-23T03:24:36;92160.66;;;14.63
40968;BMP280;57377;45.130;6.038;2023-04-23T03:27:01;92166.34;;;14.65
40968;BMP280;57377;45.130;6.038;2023-04-23T03:29:26;92157.97;;;14.51
40968;BMP280;57377;45.130;6.038;2023-04-23T03:31:52;92163.84;;;14.48
40968;BMP280;57377;45.130;6.038;2023-04-23T03:34:17;92168.06;;;14.12
40968;BMP280;57377;45.130;6.038;2023-04-23T03:36:43;92168.88;;;14.05
40968;BMP280;57377;45.130;6.038;2023-04-23T03:39:10;92155.66;;;14.01
40968;BMP280;57377;45.130;6.038;2023-04-23T03:41:36;92151.06;;;14.27
40968;BMP280;57377;45.130;6.038;2023-04-23T03:44:01;92145.31;;;14.33
40968;BMP280;57377;45.130;6.038;2023-04-23T03:46:27;92143.28;;;14.39
40968;BMP280;57377;45.130;6.038;2023-04-23T03:48:52;92144.16;;;14.43
40968;BMP280;57377;45.130;6.038;2023-04-23T03:51:17;92146.88;;;14.26
40968;BMP280;57377;45.130;6.038;2023-04-23T03:53:44;92146.19;;;14.17
40968;BMP280;57377;45.130;6.038;2023-04-23T03:56:10;92149.78;;;14.33
40968;BMP280;57377;45.130;6.038;2023-04-23T03:58:35;92165.19;;;13.97
40968;BMP280;57377;45.130;6.038;2023-04-23T04:01:01;92172.75;;;13.90
40968;BMP280;57377;45.130;6.038;2023-04-23T04:03:26;92172.19;;;14.13
40968;BMP280;57377;45.130;6.038;2023-04-23T04:05:53;92162.78;;;14.21
40968;BMP280;57377;45.130;6.038;2023-04-23T04:08:18;92151.81;;;14.27
40968;BMP280;57377;45.130;6.038;2023-04-23T04:10:43;92149.78;;;14.33
40968;BMP280;57377;45.130;6.038;2023-04-23T04:13:09;92154.97;;;14.12
40968;BMP280;57377;45.130;6.038;2023-04-23T04:15:34;92150.63;;;13.43
40968;BMP280;57377;45.130;6.038;2023-04-23T04:18:00;92148.19;;;13.75
40968;BMP280;57377;45.130;6.038;2023-04-23T04:20:26;92142.13;;;13.91
40968;BMP280;57377;45.130;6.038;2023-04-23T04:22:53;92145.28;;;13.76
40968;BMP280;57377;45.130;6.038;2023-04-23T04:25:18;92141.88;;;13.76
40968;BMP280;57377;45.130;6.038;2023-04-23T04:27:46;92136.56;;;14.01
40968;BMP280;57377;45.130;6.038;2023-04-23T04:30:12;92145.63;;;14.03
40968;BMP280;57377;45.130;6.038;2023-04-23T04:32:38;92139.78;;;14.06
40968;BMP280;57377;45.130;6.038;2023-04-23T04:35:05;92133.06;;;13.88
40968;BMP280;57377;45.130;6.038;2023-04-23T04:37:31;92124.84;;;14.07
40968;BMP280;57377;45.130;6.038;2023-04-23T04:39:56;92112.94;;;14.17
40968;BMP280;57377;45.130;6.038;2023-04-23T04:42:21;92119.88;;;14.13
40968;BMP280;57377;45.130;6.038;2023-04-23T04:44:47;92116.06;;;14.11
40968;BMP280;57377;45.130;6.038;2023-04-23T04:47:12;92120.53;;;14.11
40968;BMP280;57377;45.130;6.038;2023-04-23T04:49:38;92134.22;;;13.71
40968;BMP280;57377;45.130;6.038;2023-04-23T04:52:03;92130.38;;;13.68
40968;BMP280;57377;45.130;6.038;2023-04-23T04:54:28;92130.59;;;14.00
40968;BMP280;57377;45.130;6.038;2023-04-23T04:56:54;92127.16;;;14.08
40968;BMP280;57377;45.130;6.038;2023-04-23T04:59:19;92127.91;;;14.09
40968;BMP280;57377;45.130;6.038;2023-04-23T05:01:44;92119.69;;;14.18
40968;BMP280;57377;45.130;6.038;2023-04-23T05:04:10;92116.31;;;14.18
40968;BMP280;57377;45.130;6.038;2023-04-23T05:06:35;92120.00;;;13.88
40968;BMP280;57377;45.130;6.038;2023-04-23T05:09:01;92114.19;;;13.83
40968;BMP280;57377;45.130;6.038;2023-04-23T05:11:26;92115.16;;;14.07
40968;BMP280;57377;45.130;6.038;2023-04-23T05:13:51;92109.09;;;14.15
40968;BMP280;57377;45.130;6.038;2023-04-23T05:16:17;92107.41;;;14.19
40968;BMP280;57377;45.130;6.038;2023-04-23T05:18:42;92097.31;;;14.29
40968;BMP280;57377;45.130;6.038;2023-04-23T05:21:08;92095.84;;;14.20
40968;BMP280;57377;45.130;6.038;2023-04-23T05:23:34;92096.75;;;13.95
40968;BMP280;57377;45.130;6.038;2023-04-23T05:26:00;92110.94;;;13.86
40968;BMP280;57377;45.130;6.038;2023-04-23T05:28:27;92101.47;;;14.02
40968;BMP280;57377;45.130;6.038;2023-04-23T05:30:53;92112.97;;;14.09
40968;BMP280;57377;45.130;6.038;2023-04-23T05:33:19;92103.56;;;14.16
40968;BMP280;57377;45.130;6.038;2023-04-23T05:35:44;92109.84;;;14.24
40968;BMP280;57377;45.130;6.038;2023-04-23T05:38:09;92112.88;;;14.26
40968;BMP280;57377;45.130;6.038;2023-04-23T05:40:35;92122.53;;;14.34
40968;BMP280;57377;45.130;6.038;2023-04-23T05:43:01;92121.44;;;14.35
40968;BMP280;57377;45.130;6.038;2023-04-23T05:45:26;92117.13;;;14.39
40968;BMP280;57377;45.130;6.038;2023-04-23T05:47:52;92108.94;;;14.20
40968;BMP280;57377;45.130;6.038;2023-04-23T05:50:18;92117.09;;;13.81
40968;BMP280;57377;45.130;6.038;2023-04-23T05:52:43;92100.16;;;13.87
40968;BMP280;57377;45.130;6.038;2023-04-23T05:55:09;92112.41;;;14.04
40968;BMP280;57377;45.130;6.038;2023-04-23T05:57:36;92106.75;;;14.22
40968;BMP280;57377;45.130;6.038;2023-04-23T06:00:03;92111.22;;;14.21
40968;BMP280;57377;45.130;6.038;2023-04-23T06:02:29;92115.44;;;14.34
40968;BMP280;57377;45.130;6.038;2023-04-23T06:04:55;92118.38;;;14.33
40968;BMP280;57377;45.130;6.038;2023-04-23T06:07:20;92121.19;;;14.28
40968;BMP280;57377;45.130;6.038;2023-04-23T06:09:46;92109.34;;;13.93
40968;BMP280;57377;45.130;6.038;2023-04-23T06:12:11;92111.72;;;14.15
40968;BMP280;57377;45.130;6.038;2023-04-23T06:14:36;92109.84;;;14.24
40968;BMP280;57377;45.130;6.038;2023-04-23T06:17:02;92108.84;;;14.28
40968;BMP280;57377;45.130;6.038;2023-04-23T06:19:27;92115.31;;;14.31
40968;BMP280;57377;45.130;6.038;2023-04-23T06:21:53;92103.59;;;14.37
40968;BMP280;57377;45.130;6.038;2023-04-23T06:24:18;92105.72;;;13.77
40968;BMP280;57377;45.130;6.038;2023-04-23T06:26:44;92101.50;;;13.93
40968;BMP280;57377;45.130;6.038;2023-04-23T06:29:10;92092.13;;;14.21
40968;BMP280;57377;45.130;6.038;2023-04-23T06:31:35;92088.88;;;14.04
40968;BMP280;57377;45.130;6.038;2023-04-23T06:34:01;92079.06;;;14.21
40968;BMP280;57377;45.130;6.038;2023-04-23T06:36:26;92076.44;;;14.21
40968;BMP280;57377;45.130;6.038;2023-04-23T06:38:51;92070.78;;;14.19
40968;BMP280;57377;45.130;6.038;2023-04-23T06:41:17;92071.16;;;14.29
40968;BMP280;57377;45.130;6.038;2023-04-23T06:43:42;92072.56;;;14.27
40968;BMP280;57377;45.130;6.038;2023-04-23T06:46:07;92080.72;;;14.05
40968;BMP280;57377;45.130;6.038;2023-04-23T06:48:33;92074.63;;;13.84
40968;BMP280;57377;45.130;6.038;2023-04-23T06:50:59;92082.56;;;13.96
40968;BMP280;57377;45.130;6.038;2023-04-23T06:53:24;92089.63;;;14.04
40968;BMP280;57377;45.130;6.038;2023-04-23T06:55:49;92082.38;;;14.10
40968;BMP280;57377;45.130;6.038;2023-04-23T06:58:16;92082.53;;;13.76
40968;BMP280;57377;45.130;6.038;2023-04-23T07:00:41;92081.09;;;14.15
40968;BMP280;57377;45.130;6.038;2023-04-23T07:03:06;92075.00;;;14.32
40968;BMP280;57377;45.130;6.038;2023-04-23T07:05:32;92064.06;;;14.30
40968;BMP280;57377;45.130;6.038;2023-04-23T07:07:57;92064.03;;;14.38
40968;BMP280;57377;45.130;6.038;2023-04-23T07:10:23;92070.06;;;14.30
40968;BMP280;57377;45.130;6.038;2023-04-23T07:12:49;92070.25;;;14.05
40968;BMP280;57377;45.130;6.038;2023-04-23T07:15:14;92064.97;;;14.34
40968;BMP280;57377;45.130;6.038;2023-04-23T07:17:39;92065.28;;;14.12
40968;BMP280;57377;45.130;6.038;2023-04-23T07:20:06;92067.44;;;14.30
40968;BMP280;57377;45.130;6.038;2023-04-23T07:22:32;92061.22;;;14.43
40968;BMP280;57377;45.130;6.038;2023-04-23T07:24:59;92058.34;;;14.36
40968;BMP280;57377;45.130;6.038;2023-04-23T07:27:25;92064.75;;;14.59
40968;BMP280;57377;45.130;6.038;2023-04-23T07:29:50;92067.72;;;14.57
40968;BMP280;57377;45.130;6.038;2023-04-23T07:32:16;92067.72;;;14.57
40968;BMP280;57377;45.130;6.038;2023-04-23T07:34:41;92059.13;;;14.69
40968;BMP280;57377;45.130;6.038;2023-04-23T07:37:06;92059.56;;;14.39
40968;BMP280;57377;45.130;6.038;2023-04-23T07:39:32;92056.84;;;14.67
40968;BMP280;57377;45.130;6.038;2023-04-23T07:41:57;92057.41;;;14.73
40968;BMP280;57377;45.130;6.038;2023-04-23T07:44:23;92058.97;;;14.85
40968;BMP280;57377;45.130;6.038;2023-04-23T07:46:49;92055.94;;;14.63
40968;BMP280;57377;45.130;6.038;2023-04-23T07:49:14;92054.50;;;14.86
40968;BMP280;57377;45.130;6.038;2023-04-23T07:51:40;92055.03;;;14.79
40968;BMP280;57377;45.130;6.038;2023-04-23T07:54:07;92057.47;;;14.84
40968;BMP280;57377;45.130;6.038;2023-04-23T07:56:32;92051.13;;;14.53
40968;BMP280;57377;45.130;6.038;2023-04-23T07:58:58;92047.94;;;14.80
40968;BMP280;57377;45.130;6.038;2023-04-23T08:01:24;92041.75;;;14.64
40968;BMP280;57377;45.130;6.038;2023-04-23T08:03:49;92049.03;;;14.79
40968;BMP280;57377;45.130;6.038;2023-04-23T08:06:15;92042.63;;;14.56
40968;BMP280;57377;45.130;6.038;2023-04-23T08:08:40;92039.00;;;14.81
40968;BMP280;57377;45.130;6.038;2023-04-23T08:11:06;92032.50;;;14.99
40968;BMP280;57377;45.130;6.038;2023-04-23T08:13:31;92033.38;;;15.03
40968;BMP280;57377;45.130;6.038;2023-04-23T08:15:57;92026.53;;;15.10
40968;BMP280;57377;45.130;6.038;2023-04-23T08:18:22;92021.31;;;15.22
40968;BMP280;57377;45.130;6.038;2023-04-23T08:20:48;92017.94;;;15.21
40968;BMP280;57377;45.130;6.038;2023-04-23T08:23:13;92013.59;;;15.25
40968;BMP280;57377;45.130;6.038;2023-04-23T08:25:39;92011.97;;;15.33
40968;BMP280;57377;45.130;6.038;2023-04-23T08:28:04;92015.25;;;15.41
40968;BMP280;57377;45.130;6.038;2023-04-23T08:30:30;92014.91;;;15.43
40968;BMP280;57377;45.130;6.038;2023-04-23T08:32:55;91998.53;;;15.46
40968;BMP280;57377;45.130;6.038;2023-04-23T08:35:22;91998.53;;;15.46
40968;BMP280;57377;45.130;6.038;2023-04-23T08:37:48;91994.84;;;15.47
40968;BMP280;57377;45.130;6.038;2023-04-23T08:40:14;91999.63;;;15.33
40968;BMP280;57377;45.130;6.038;2023-04-23T08:42:49;92000.75;;;15.56
40968;BMP280;57377;45.130;6.038;2023-04-23T08:45:18;91992.75;;;15.64
40968;BMP280;57377;45.130;6.038;2023-04-23T08:47:44;92008.38;;;15.37
40968;BMP280;57377;45.130;6.038;2023-04-23T08:50:11;92001.16;;;15.34
40968;BMP280;57377;45.130;6.038;2023-04-23T08:52:41;91992.53;;;15.57
40968;BMP280;57377;45.130;6.038;2023-04-23T08:55:10;91989.81;;;15.66
40968;BMP280;57377;45.130;6.038;2023-04-23T08:57:40;91987.28;;;15.57
40968;BMP280;57377;45.130;6.038;2023-04-23T09:00:10;91981.94;;;15.77
40968;BMP280;57377;45.130;6.038;2023-04-23T09:02:40;91972.72;;;15.83
40968;BMP280;57377;45.130;6.038;2023-04-23T09:05:06;91975.44;;;15.87
40968;BMP280;57377;45.130;6.038;2023-04-23T09:07:32;91969.63;;;16.05
40968;BMP280;57377;45.130;6.038;2023-04-23T09:09:58;91969.84;;;16.00
40968;BMP280;57377;45.130;6.038;2023-04-23T09:12:23;91965.81;;;16.03
40968;BMP280;57377;45.130;6.038;2023-04-23T09:14:49;91970.31;;;15.90
40968;BMP280;57377;45.130;6.038;2023-04-23T09:17:17;91971.94;;;16.06
40968;BMP280;57377;45.130;6.038;2023-04-23T09:19:44;91970.50;;;16.21
40968;BMP280;57377;45.130;6.038;2023-04-23T09:22:09;91966.97;;;16.29
40968;BMP280;57377;45.130;6.038;2023-04-23T09:24:35;91963.63;;;16.43
40968;BMP280;57377;45.130;6.038;2023-04-23T09:27:00;91957.91;;;16.53
40968;BMP280;57377;45.130;6.038;2023-04-23T09:29:26;91949.09;;;16.61
40968;BMP280;57377;45.130;6.038;2023-04-23T09:32:06;91947.25;;;16.62
40968;BMP280;57377;45.130;6.038;2023-04-23T09:34:33;91944.72;;;16.65
40968;BMP280;57377;45.130;6.038;2023-04-23T09:36:59;91938.13;;;16.71
40968;BMP280;57377;45.130;6.038;2023-04-23T09:39:25;91937.47;;;16.74
40968;BMP280;57377;45.130;6.038;2023-04-23T09:41:51;91929.16;;;16.87
40968;BMP280;57377;45.130;6.038;2023-04-23T09:44:19;91931.72;;;16.99
40968;BMP280;57377;45.130;6.038;2023-04-23T09:46:46;91929.19;;;17.02
40968;BMP280;57377;45.130;6.038;2023-04-23T09:49:12;91932.66;;;17.06
40968;BMP280;57377;45.130;6.038;2023-04-23T09:51:46;91933.66;;;17.02
40968;BMP280;57377;45.130;6.038;2023-04-23T09:54:20;91918.41;;;17.07
40968;BMP280;57377;45.130;6.038;2023-04-23T09:56:53;91915.03;;;17.07
40968;BMP280;57377;45.130;6.038;2023-04-23T09:59:26;91908.50;;;17.16
40968;BMP280;57377;45.130;6.038;2023-04-23T10:01:52;91915.44;;;17.09
40968;BMP280;57377;45.130;6.038;2023-04-23T10:04:19;91910.06;;;17.17
40968;BMP280;57377;45.130;6.038;2023-04-23T10:06:56;91905.22;;;17.19
40968;BMP280;57377;45.130;6.038;2023-04-23T10:09:22;91904.78;;;17.48
40968;BMP280;57377;45.130;6.038;2023-04-23T10:11:57;91904.69;;;17.44
40968;BMP280;57377;45.130;6.038;2023-04-23T10:14:26;91900.50;;;17.59
40968;BMP280;57377;45.130;6.038;2023-04-23T10:17:01;91901.50;;;17.69
40968;BMP280;57377;45.130;6.038;2023-04-23T10:19:28;91894.78;;;17.72
40968;BMP280;57377;45.130;6.038;2023-04-23T10:21:55;91888.69;;;17.68
40968;BMP280;57377;45.130;6.038;2023-04-23T10:24:25;91895.75;;;17.83
40968;BMP280;57377;45.130;6.038;2023-04-23T10:26:59;91896.78;;;17.78
40968;BMP280;57377;45.130;6.038;2023-04-23T10:29:31;91876.44;;;17.75
40968;BMP280;57377;45.130;6.038;2023-04-23T10:31:58;91884.88;;;17.66
40968;BMP280;57377;45.130;6.038;2023-04-23T10:34:24;91885.09;;;17.76
40968;BMP280;57377;45.130;6.038;2023-04-23T10:36:50;91882.81;;;17.74
40968;BMP280;57377;45.130;6.038;2023-04-23T10:39:17;91886.56;;;17.92
40968;BMP280;57377;45.130;6.038;2023-04-23T10:41:43;91885.13;;;17.95
40968;BMP280;57377;45.130;6.038;2023-04-23T10:44:13;91875.06;;;18.00
40968;BMP280;57377;45.130;6.038;2023-04-23T10:46:50;91892.41;;;18.01
40968;BMP280;57377;45.130;6.038;2023-04-23T10:49:16;91891.50;;;17.94
40968;BMP280;57377;45.130;6.038;2023-04-23T10:51:44;91889.19;;;17.92
40968;BMP280;57377;45.130;6.038;2023-04-23T10:54:13;91898.06;;;18.03
40968;BMP280;57377;45.130;6.038;2023-04-23T10:56:39;91883.09;;;17.88
40968;BMP280;57377;45.130;6.038;2023-04-23T10:59:07;91886.75;;;17.84
40968;BMP280;57377;45.130;6.038;2023-04-23T11:01:32;91883.22;;;17.76
40968;BMP280;57377;45.130;6.038;2023-04-23T11:03:58;91883.63;;;17.78
40968;BMP280;57377;45.130;6.038;2023-04-23T11:09:42;91885.59;;;18.00
40968;BMP280;57377;45.130;6.038;2023-04-23T11:14:49;91875.81;;;18.00
40968;BMP280;57377;45.130;6.038;2023-04-23T11:17:17;91880.75;;;18.02
40968;BMP280;57377;45.130;6.038;2023-04-23T11:22:33;91875.94;;;18.04
40968;BMP280;57377;45.130;6.038;2023-04-23T11:25:00;91869.75;;;17.97
40968;BMP280;57377;45.130;6.038;2023-04-23T11:27:26;91862.94;;;17.96
40968;BMP280;57377;45.130;6.038;2023-04-23T11:29:54;91870.94;;;17.99
40968;BMP280;57377;45.130;6.038;2023-04-23T11:32:20;91865.56;;;17.96
40968;BMP280;57377;45.130;6.038;2023-04-23T11:34:46;91859.38;;;18.03
40968;BMP280;57377;45.130;6.038;2023-04-23T11:37:15;91869.75;;;17.97
40968;BMP280;57377;45.130;6.038;2023-04-23T11:39:41;91865.47;;;18.07
40968;BMP280;57377;45.130;6.038;2023-04-23T11:42:11;91869.38;;;17.98
40968;BMP280;57377;45.130;6.038;2023-04-23T11:44:42;91858.69;;;18.06
40968;BMP280;57377;45.130;6.038;2023-04-23T11:47:10;91858.84;;;18.13
40968;BMP280;57377;45.130;6.038;2023-04-23T11:52:31;91857.56;;;18.07
40968;BMP280;57377;45.130;6.038;2023-04-23T11:55:01;91856.13;;;18.29
40968;BMP280;57377;45.130;6.038;2023-04-23T11:57:27;91850.38;;;18.42
40968;BMP280;57377;45.130;6.038;2023-04-23T11:59:53;91861.34;;;18.25
40968;BMP280;57377;45.130;6.038;2023-04-23T12:02:22;91853.91;;;18.31
40968;BMP280;57377;45.130;6.038;2023-04-23T12:04:48;91859.66;;;18.36
40968;BMP280;57377;45.130;6.038;2023-04-23T12:07:13;91852.06;;;18.53
40968;BMP280;57377;45.130;6.038;2023-04-23T12:09:39;91848.69;;;18.75
40968;BMP280;57377;45.130;6.038;2023-04-23T12:12:04;91841.03;;;18.89
40968;BMP280;57377;45.130;6.038;2023-04-23T12:14:30;91852.81;;;19.17
40968;BMP280;57377;45.130;6.038;2023-04-23T12:16:58;91840.50;;;19.24
40968;BMP280;57377;45.130;6.038;2023-04-23T12:19:32;91847.38;;;19.06
40968;BMP280;57377;45.130;6.038;2023-04-23T12:22:01;91849.84;;;18.96
40968;BMP280;57377;45.130;6.038;2023-04-23T12:24:44;91847.56;;;18.95
40968;BMP280;57377;45.130;6.038;2023-04-23T12:27:13;91853.19;;;18.93
40968;BMP280;57377;45.130;6.038;2023-04-23T12:29:39;91854.78;;;18.79
40968;BMP280;57377;45.130;6.038;2023-04-23T12:32:09;91846.94;;;18.82
40968;BMP280;57377;45.130;6.038;2023-04-23T12:34:35;91843.31;;;18.90
40968;BMP280;57377;45.130;6.038;2023-04-23T12:37:05;91837.38;;;18.93
40968;BMP280;57377;45.130;6.038;2023-04-23T12:39:33;91827.94;;;18.92
40968;BMP280;57377;45.130;6.038;2023-04-23T12:42:01;91832.31;;;18.85
40968;BMP280;57377;45.130;6.038;2023-04-23T12:44:33;91834.94;;;18.85
40968;BMP280;57377;45.130;6.038;2023-04-23T12:47:04;91835.63;;;18.82
40968;BMP280;57377;45.130;6.038;2023-04-23T12:49:32;91840.47;;;18.80
40968;BMP280;57377;45.130;6.038;2023-04-23T12:51:59;91827.09;;;18.88
40968;BMP280;57377;45.130;6.038;2023-04-23T12:59:40;91821.09;;;18.91
40968;BMP280;57377;45.130;6.038;2023-04-23T13:17:36;91810.28;;;18.74
40968;BMP280;57377;45.130;6.038;2023-04-23T13:20:01;91812.78;;;18.67
40968;BMP280;57377;45.130;6.038;2023-04-23T13:22:28;91807.81;;;18.62
40968;BMP280;57377;45.130;6.038;2023-04-23T13:24:54;91805.44;;;18.54
40968;BMP280;57377;45.130;6.038;2023-04-23T13:27:24;91806.06;;;18.47
40968;BMP280;57377;45.130;6.038;2023-04-23T13:29:50;91799.97;;;18.43
40968;BMP280;57377;45.130;6.038;2023-04-23T13:32:15;91804.94;;;18.48
40968;BMP280;57377;45.130;6.038;2023-04-23T13:34:41;91792.88;;;18.47
40968;BMP280;57377;45.130;6.038;2023-04-23T13:37:07;91790.25;;;18.47
40968;BMP280;57377;45.130;6.038;2023-04-23T13:39:34;91794.94;;;18.57
40968;BMP280;57377;45.130;6.038;2023-04-23T13:41:59;91799.63;;;18.45
40968;BMP280;57377;45.130;6.038;2023-04-23T13:44:26;91807.44;;;18.41
40968;BMP280;57377;45.130;6.038;2023-04-23T13:46:51;91799.06;;;18.36
40968;BMP280;57377;45.130;6.038;2023-04-23T13:49:16;91802.66;;;18.25
40968;BMP280;57377;45.130;6.038;2023-04-23T13:51:42;91805.00;;;18.30
40968;BMP280;57377;45.130;6.038;2023-04-23T13:54:07;91801.13;;;18.24
40968;BMP280;57377;45.130;6.038;2023-04-23T13:56:32;91799.38;;;18.12
40968;BMP280;57377;45.130;6.038;2023-04-23T13:58:58;91794.13;;;18.12
40968;BMP280;57377;45.130;6.038;2023-04-23T14:01:27;91815.66;;;17.99
40968;BMP280;57377;45.130;6.038;2023-04-23T14:03:52;91809.69;;;18.02
40968;BMP280;57377;45.130;6.038;2023-04-23T14:06:17;91809.41;;;17.88
40968;BMP280;57377;45.130;6.038;2023-04-23T14:08:43;91799.69;;;17.89
40968;BMP280;57377;45.130;6.038;2023-04-23T14:11:08;91799.03;;;17.95
40968;BMP280;57377;45.130;6.038;2023-04-23T14:13:34;91803.34;;;17.84
40968;BMP280;57377;45.130;6.038;2023-04-23T14:15:59;91837.59;;;17.69
40968;BMP280;57377;45.130;6.038;2023-04-23T14:18:24;91832.47;;;17.76
40968;BMP280;57377;45.130;6.038;2023-04-23T14:20:50;91849.28;;;17.53
40968;BMP280;57377;45.130;6.038;2023-04-23T14:25:44;91839.38;;;17.46
40968;BMP280;57377;45.130;6.038;2023-04-23T14:28:33;91841.19;;;17.27
40968;BMP280;57377;45.130;6.038;2023-04-23T14:31:00;91823.00;;;17.37
40968;BMP280;57377;45.130;6.038;2023-04-23T14:33:25;91834.00;;;17.43
40968;BMP280;57377;45.130;6.038;2023-04-23T14:35:51;91841.94;;;17.28
40968;BMP280;57377;45.130;6.038;2023-04-23T14:38:16;91832.59;;;17.30